createdAt,value
2022-09-12T00:02:04.717Z,81.33
2022-09-12T00:04:31.879Z,81.25
2022-09-12T00:06:59.013Z,81.72
2022-09-12T00:09:26.165Z,81.53
2022-09-12T00:11:53.353Z,82.51
2022-09-12T00:14:20.588Z,82.51
2022-09-12T00:16:47.894Z,82.74
2022-09-12T00:19:15.418Z,82.49
2022-09-12T00:21:42.880Z,82.72
2022-09-12T00:24:11.230Z,83.20
2022-09-12T00:26:38.415Z,82.95
2022-09-12T00:29:05.777Z,83.87
2022-09-12T00:31:33.088Z,83.78
2022-09-12T00:34:04.119Z,84.08
2022-09-12T00:36:31.631Z,84.08
2022-09-12T00:38:59.412Z,84.17
2022-09-12T00:41:32.671Z,84.13
2022-09-12T00:44:21.522Z,84.60
2022-09-12T00:47:01.072Z,84.68
2022-09-12T00:49:33.962Z,84.65
2022-09-12T00:52:07.161Z,85.17
2022-09-12T00:54:58.560Z,85.02
2022-09-12T00:57:31.541Z,85.45
2022-09-12T01:00:14.382Z,85.12
2022-09-12T01:02:49.426Z,85.66
2022-09-12T01:05:17.210Z,85.31
2022-09-12T01:07:48.734Z,85.56
2022-09-12T01:10:16.784Z,85.59
2022-09-12T01:12:44.704Z,85.24
2022-09-12T01:15:12.141Z,85.54
2022-09-12T01:17:54.675Z,85.77
2022-09-12T01:20:33.502Z,86.27
2022-09-12T01:23:19.835Z,85.90
2022-09-12T01:26:24.499Z,85.87
2022-09-12T01:29:06.837Z,86.37
2022-09-12T01:31:44.625Z,86.71
2022-09-12T01:34:26.613Z,85.63
2022-09-12T01:36:56.745Z,85.61
2022-09-12T01:39:32.829Z,86.19
2022-09-12T01:42:07.023Z,86.61
2022-09-12T01:45:07.476Z,86.88
2022-09-12T01:47:50.234Z,86.54
2022-09-12T01:50:26.081Z,87.49
2022-09-12T01:53:09.265Z,87.17
2022-09-12T01:55:36.368Z,86.97
2022-09-12T01:58:11.980Z,87.13
2022-09-12T02:00:48.557Z,87.59
2022-09-12T02:03:20.492Z,87.79
2022-09-12T02:05:54.083Z,87.73
2022-09-12T02:08:28.894Z,87.77
2022-09-12T02:11:09.588Z,87.60
2022-09-12T02:13:50.088Z,87.78
2022-09-12T02:16:26.674Z,87.99
2022-09-12T02:18:58.240Z,87.86
2022-09-12T02:21:27.602Z,87.71
2022-09-12T02:24:01.615Z,87.95
2022-09-12T02:26:52.533Z,87.73
2022-09-12T02:29:19.579Z,88.14
2022-09-12T02:32:00.776Z,87.74
2022-09-12T02:34:34.988Z,88.20
2022-09-12T02:37:15.621Z,88.47
2022-09-12T02:39:45.357Z,89.03
2022-09-12T02:42:13.941Z,88.60
2022-09-12T02:44:41.971Z,88.58
2022-09-12T02:47:23.812Z,88.35
2022-09-12T02:49:51.819Z,88.22
2022-09-12T02:52:19.729Z,88.05
2022-09-12T02:54:48.092Z,87.70
2022-09-12T02:57:22.820Z,88.17
2022-09-12T02:59:54.419Z,88.10
2022-09-12T03:02:39.979Z,88.06
2022-09-12T03:05:19.106Z,88.16
2022-09-12T03:08:04.459Z,88.33
2022-09-12T03:10:50.070Z,88.63
2022-09-12T03:13:19.878Z,88.66
2022-09-12T03:16:31.863Z,88.58
2022-09-12T03:19:09.934Z,88.35
2022-09-12T03:21:57.012Z,88.01
2022-09-12T03:24:43.413Z,88.27
2022-09-12T03:27:16.625Z,88.10
2022-09-12T03:29:46.460Z,88.64
2022-09-12T03:32:14.219Z,88.49
2022-09-12T03:34:41.579Z,88.58
2022-09-12T03:37:08.663Z,88.17
2022-09-12T03:39:35.702Z,88.33
2022-09-12T03:42:02.831Z,89.17
2022-09-12T03:44:30.146Z,88.62
2022-09-12T03:46:57.434Z,88.01
2022-09-12T03:49:24.597Z,88.41
2022-09-12T03:51:51.658Z,88.53
2022-09-12T03:54:18.818Z,88.55
2022-09-12T03:56:45.919Z,88.50
2022-09-12T03:59:13.301Z,88.43
2022-09-12T04:01:42.039Z,88.53
2022-09-12T04:04:09.658Z,87.88
2022-09-12T04:06:36.699Z,87.79
2022-09-12T04:09:04.179Z,88.43
2022-09-12T04:11:32.469Z,88.54
2022-09-12T04:14:00.049Z,88.60
2022-09-12T04:16:27.580Z,88.99
2022-09-12T04:18:54.790Z,88.15
2022-09-12T04:21:22.429Z,88.93
2022-09-12T04:23:49.734Z,89.32
2022-09-12T04:26:18.793Z,89.22
2022-09-12T04:28:46.882Z,88.68
2022-09-12T04:31:22.805Z,89.19
2022-09-12T04:33:58.313Z,89.17
2022-09-12T04:36:26.579Z,88.75
2022-09-12T04:38:54.134Z,89.18
2022-09-12T04:41:26.548Z,89.20
2022-09-12T04:43:56.212Z,89.20
2022-09-12T04:46:23.267Z,88.89
2022-09-12T04:48:55.936Z,89.01
2022-09-12T04:51:29.259Z,89.30
2022-09-12T04:53:59.686Z,89.43
2022-09-12T04:56:27.460Z,89.87
2022-09-12T04:58:56.821Z,89.66
2022-09-12T05:01:24.098Z,89.66
2022-09-12T05:03:52.105Z,89.17
2022-09-12T05:06:23.104Z,89.46
2022-09-12T05:08:51.382Z,89.56
2022-09-12T05:11:26.552Z,89.50
2022-09-12T05:13:55.589Z,89.19
2022-09-12T05:16:24.046Z,89.40
2022-09-12T05:18:51.335Z,89.15
2022-09-12T05:21:21.306Z,89.28
2022-09-12T05:23:55.149Z,89.15
2022-09-12T05:26:23.550Z,88.75
2022-09-12T05:28:51.972Z,88.45
2022-09-12T05:31:24.560Z,88.65
2022-09-12T05:33:53.579Z,88.53
2022-09-12T05:36:24.239Z,88.06
2022-09-12T05:38:51.739Z,87.98
2022-09-12T05:41:25.242Z,87.75
2022-09-12T05:43:54.904Z,88.13
2022-09-12T05:46:24.443Z,88.10
2022-09-12T05:48:56.126Z,87.95
2022-09-12T05:51:26.941Z,87.25
2022-09-12T05:53:57.866Z,87.82
2022-09-12T05:56:27.573Z,87.52
2022-09-12T05:59:00.779Z,87.24
2022-09-12T06:01:29.363Z,86.93
2022-09-12T06:03:59.297Z,87.42
2022-09-12T06:06:28.111Z,87.54
2022-09-12T06:08:58.919Z,87.23
2022-09-12T06:11:29.107Z,87.18
2022-09-12T06:13:57.983Z,87.01
2022-09-12T06:16:27.771Z,86.90
2022-09-12T06:19:04.840Z,86.46
2022-09-12T06:21:32.188Z,85.89
2022-09-12T06:23:59.462Z,85.92
2022-09-12T06:26:29.420Z,85.90
2022-09-12T06:28:59.682Z,85.61
2022-09-12T06:31:33.685Z,86.04
2022-09-12T06:34:04.429Z,85.85
2022-09-12T06:36:37.779Z,86.02
2022-09-12T06:39:13.535Z,86.00
2022-09-12T06:41:43.944Z,85.62
2022-09-12T06:44:19.462Z,85.42
2022-09-12T06:46:47.343Z,84.78
2022-09-12T06:49:14.834Z,84.77
2022-09-12T06:51:44.954Z,84.86
2022-09-12T06:54:17.408Z,84.94
2022-09-12T06:56:45.081Z,84.21
2022-09-12T06:59:12.750Z,84.26
2022-09-12T07:01:41.459Z,83.60
2022-09-12T07:04:08.855Z,82.92
2022-09-12T07:06:41.953Z,82.32
2022-09-12T07:09:14.261Z,82.02
2022-09-12T07:11:42.682Z,81.55
2022-09-12T07:14:14.192Z,81.48
2022-09-12T07:16:42.072Z,81.31
2022-09-12T07:19:09.996Z,81.34
2022-09-12T07:21:40.506Z,81.19
2022-09-12T07:24:10.017Z,81.29
2022-09-12T07:26:38.019Z,81.27
2022-09-12T07:29:32.325Z,80.76
2022-09-12T07:31:52.775Z,79.36
2022-09-12T07:34:19.918Z,78.26
2022-09-12T07:36:47.053Z,76.91
2022-09-12T07:39:14.260Z,76.39
2022-09-12T07:41:41.724Z,76.47
2022-09-12T07:44:09.001Z,75.46
2022-09-12T07:46:36.127Z,74.55
2022-09-12T07:49:03.310Z,73.30
2022-09-12T07:51:31.070Z,72.82
2022-09-12T07:53:58.662Z,72.10
2022-09-12T07:56:30.128Z,71.88
2022-09-12T07:58:57.844Z,71.87
2022-09-12T08:01:25.194Z,71.62
2022-09-12T08:03:57.940Z,71.84
2022-09-12T08:06:26.760Z,72.26
2022-09-12T08:08:56.518Z,72.31
2022-09-12T08:11:25.629Z,71.95
2022-09-12T08:13:56.250Z,71.80
2022-09-12T08:16:29.892Z,71.50
2022-09-12T08:18:57.424Z,71.21
2022-09-12T08:21:26.871Z,70.94
2022-09-12T08:23:56.629Z,69.76
2022-09-12T08:26:25.022Z,68.51
2022-09-12T08:28:53.431Z,67.63
2022-09-12T08:31:24.135Z,67.57
2022-09-12T08:33:52.140Z,67.98
2022-09-12T08:36:23.293Z,67.78
2022-09-12T08:38:59.233Z,67.80
2022-09-12T08:41:32.469Z,68.54
2022-09-12T08:44:05.583Z,68.91
2022-09-12T08:46:41.293Z,69.40
2022-09-12T08:49:15.814Z,68.19
2022-09-12T08:51:43.440Z,67.59
2022-09-12T08:54:24.450Z,67.14
2022-09-12T08:56:53.669Z,67.57
2022-09-12T08:59:21.262Z,65.97
2022-09-12T09:01:55.475Z,65.41
2022-09-12T09:04:26.860Z,64.86
2022-09-12T09:07:14.991Z,66.01
2022-09-12T09:09:51.133Z,66.74
2022-09-12T09:12:45.490Z,66.94
2022-09-12T09:15:24.044Z,66.51
2022-09-12T09:18:00.860Z,64.99
2022-09-12T09:20:31.676Z,65.25
2022-09-12T09:23:05.799Z,64.84
2022-09-12T09:25:51.140Z,64.74
2022-09-12T09:28:23.988Z,65.54
2022-09-12T09:30:51.615Z,65.94
2022-09-12T09:33:23.273Z,66.04
2022-09-12T09:36:09.270Z,65.58
2022-09-12T09:39:04.425Z,65.28
2022-09-12T09:41:42.502Z,65.76
2022-09-12T09:44:10.714Z,65.27
2022-09-12T09:46:37.929Z,64.95
2022-09-12T09:49:07.509Z,65.31
2022-09-12T09:51:39.021Z,65.41
2022-09-12T09:54:28.349Z,65.57
2022-09-12T09:56:56.632Z,64.72
2022-09-12T09:59:32.023Z,64.43
2022-09-12T10:02:03.586Z,61.13
2022-09-12T10:04:39.237Z,61.48
2022-09-12T10:07:19.020Z,61.11
2022-09-12T10:10:16.007Z,60.69
2022-09-12T10:12:43.804Z,61.93
2022-09-12T10:15:24.139Z,61.67
2022-09-12T10:17:51.658Z,60.80
2022-09-12T10:20:33.223Z,60.13
2022-09-12T10:23:02.902Z,60.86
2022-09-12T10:25:30.395Z,61.29
2022-09-12T10:28:00.738Z,61.01
2022-09-12T10:30:28.994Z,60.25
2022-09-12T10:33:12.515Z,59.85
2022-09-12T10:35:46.457Z,58.25
2022-09-12T10:38:21.662Z,57.76
2022-09-12T10:40:59.121Z,58.83
2022-09-12T10:43:37.655Z,57.63
2022-09-12T10:46:16.931Z,56.44
2022-09-12T10:48:48.465Z,56.22
2022-09-12T10:51:29.986Z,56.06
2022-09-12T10:54:05.083Z,57.12
2022-09-12T10:56:52.672Z,57.33
2022-09-12T10:59:34.708Z,56.99
2022-09-12T11:02:15.233Z,56.48
2022-09-12T11:04:56.458Z,55.47
2022-09-12T11:07:42.345Z,55.03
2022-09-12T11:10:52.071Z,53.97
2022-09-12T11:13:27.392Z,54.48
2022-09-12T11:16:20.161Z,54.55
2022-09-12T11:18:58.582Z,54.89
2022-09-12T11:21:45.378Z,55.22
2022-09-12T11:24:21.629Z,54.79
2022-09-12T11:26:57.754Z,54.92
2022-09-12T11:29:35.533Z,54.33
2022-09-12T11:32:08.624Z,55.36
2022-09-12T11:34:54.110Z,56.16
2022-09-12T11:37:40.222Z,55.22
2022-09-12T11:40:18.581Z,54.98
2022-09-12T11:42:48.338Z,55.01
2022-09-12T11:45:43.360Z,54.99
2022-09-12T11:48:32.546Z,55.87
2022-09-12T11:51:03.299Z,54.79
2022-09-12T11:53:36.952Z,54.97
2022-09-12T11:56:18.942Z,55.89
2022-09-12T11:58:59.953Z,55.89
2022-09-12T12:01:41.293Z,55.84
2022-09-12T12:04:15.978Z,55.86
2022-09-12T12:07:06.226Z,56.09
2022-09-12T12:09:34.572Z,55.68
2022-09-12T12:12:09.743Z,54.55
2022-09-12T12:14:47.209Z,54.71
2022-09-12T12:17:25.644Z,54.36
2022-09-12T12:20:08.427Z,54.84
2022-09-12T12:22:36.351Z,55.28
2022-09-12T12:25:12.421Z,54.82
2022-09-12T12:27:56.188Z,54.90
2022-09-12T12:30:32.310Z,55.82
2022-09-12T12:33:13.460Z,53.97
2022-09-12T12:35:47.106Z,54.57
2022-09-12T12:38:31.900Z,55.38
2022-09-12T12:41:17.529Z,54.75
2022-09-12T12:43:48.700Z,54.96
2022-09-12T12:46:21.098Z,55.06
2022-09-12T12:49:20.254Z,54.78
2022-09-12T12:52:01.812Z,54.80
2022-09-12T12:54:40.413Z,54.16
2022-09-12T12:57:13.579Z,53.59
2022-09-12T13:00:05.380Z,53.36
2022-09-12T13:02:42.009Z,53.06
2022-09-12T13:05:22.465Z,54.15
2022-09-12T13:07:56.536Z,54.15
2022-09-12T13:10:29.032Z,54.97
2022-09-12T13:13:00.079Z,55.45
2022-09-12T13:15:36.482Z,55.66
2022-09-12T13:18:11.580Z,56.82
2022-09-12T13:20:48.477Z,57.33
2022-09-12T13:23:28.063Z,58.06
2022-09-12T13:25:57.598Z,57.46
2022-09-12T13:28:26.670Z,57.57
2022-09-12T13:31:18.349Z,56.79
2022-09-12T13:33:56.278Z,56.24
2022-09-12T13:36:35.673Z,55.88
2022-09-12T13:39:12.069Z,55.40
2022-09-12T13:41:39.280Z,55.28
2022-09-12T13:44:11.822Z,54.55
2022-09-12T13:46:39.816Z,54.74
2022-09-12T13:49:21.183Z,54.32
2022-09-12T13:52:03.742Z,55.00
2022-09-12T13:54:33.053Z,55.24
2022-09-12T13:57:00.626Z,55.63
2022-09-12T13:59:28.106Z,55.70
2022-09-12T14:01:55.575Z,55.12
2022-09-12T14:04:43.939Z,54.77
2022-09-12T14:07:23.176Z,55.40
2022-09-12T14:09:59.259Z,55.80
2022-09-12T14:12:32.784Z,55.59
2022-09-12T14:14:59.949Z,55.41
2022-09-12T14:17:39.568Z,56.00
2022-09-12T14:20:14.463Z,56.12
2022-09-12T14:22:41.973Z,56.61
2022-09-12T14:25:16.732Z,56.44
2022-09-12T14:27:55.901Z,57.12
2022-09-12T14:30:27.224Z,57.13
2022-09-12T14:33:12.591Z,57.20
2022-09-12T14:36:21.469Z,57.09
2022-09-12T14:38:52.699Z,57.07
2022-09-12T14:41:31.586Z,57.33
2022-09-12T14:44:10.701Z,56.90
2022-09-12T14:46:39.567Z,57.51
2022-09-12T14:49:12.434Z,57.71
2022-09-12T14:51:47.132Z,57.52
2022-09-12T14:54:28.831Z,59.06
2022-09-12T14:56:57.324Z,58.78
2022-09-12T14:59:35.227Z,59.43
2022-09-12T15:02:17.477Z,57.27
2022-09-12T15:04:49.899Z,56.77
2022-09-12T15:07:34.063Z,55.52
2022-09-12T15:10:37.972Z,56.52
2022-09-12T15:13:16.867Z,56.53
2022-09-12T15:15:52.027Z,56.42
2022-09-12T15:18:20.664Z,56.43
2022-09-12T15:20:50.859Z,57.00
2022-09-12T15:23:25.387Z,57.38
2022-09-12T15:25:52.739Z,57.13
2022-09-12T15:28:22.094Z,57.67
2022-09-12T15:30:51.533Z,57.70
2022-09-12T15:33:20.662Z,57.46
2022-09-12T15:35:47.910Z,57.21
2022-09-12T15:38:15.228Z,58.04
2022-09-12T15:40:42.514Z,57.98
2022-09-12T15:43:13.177Z,58.17
2022-09-12T15:45:43.856Z,58.14
2022-09-12T15:48:11.079Z,57.53
2022-09-12T15:50:38.242Z,57.28
2022-09-12T15:53:05.299Z,57.11
2022-09-12T15:55:33.228Z,56.84
2022-09-12T15:58:04.874Z,56.81
2022-09-12T16:00:34.152Z,56.83
2022-09-12T16:03:01.461Z,57.50
2022-09-12T16:05:29.781Z,58.13
2022-09-12T16:07:56.953Z,57.88
2022-09-12T16:10:28.018Z,57.56
2022-09-12T16:12:55.540Z,57.76
2022-09-12T16:15:25.311Z,57.75
2022-09-12T16:17:53.292Z,58.13
2022-09-12T16:20:21.381Z,58.37
2022-09-12T16:22:49.262Z,58.76
2022-09-12T16:25:17.606Z,59.45
2022-09-12T16:27:45.060Z,60.46
2022-09-12T16:30:13.484Z,60.85
2022-09-12T16:32:40.914Z,61.02
2022-09-12T16:35:08.748Z,60.96
2022-09-12T16:37:36.385Z,62.53
2022-09-12T16:40:05.229Z,63.19
2022-09-12T16:42:32.722Z,63.58
2022-09-12T16:45:00.023Z,64.32
2022-09-12T16:47:27.471Z,64.68
2022-09-12T16:49:54.710Z,64.99
2022-09-12T16:52:21.932Z,65.02
2022-09-12T16:54:49.023Z,65.62
2022-09-12T16:57:16.296Z,66.03
2022-09-12T16:59:43.461Z,65.73
2022-09-12T17:02:12.877Z,66.23
2022-09-12T17:04:40.583Z,66.87
2022-09-12T17:07:08.693Z,67.16
2022-09-12T17:09:35.866Z,67.73
2022-09-12T17:12:03.263Z,67.37
2022-09-12T17:14:30.858Z,67.96
2022-09-12T17:16:57.938Z,68.09
2022-09-12T17:19:28.353Z,69.05
2022-09-12T17:21:55.588Z,68.52
2022-09-12T17:24:23.292Z,69.09
2022-09-12T17:26:51.830Z,69.77
2022-09-12T17:29:19.189Z,70.13
2022-09-12T17:31:46.829Z,70.52
2022-09-12T17:34:14.825Z,70.69
2022-09-12T17:36:44.662Z,70.82
2022-09-12T17:39:13.954Z,71.07
2022-09-12T17:41:46.307Z,71.50
2022-09-12T17:44:15.418Z,71.54
2022-09-12T17:46:42.969Z,71.87
2022-09-12T17:49:15.705Z,71.82
2022-09-12T17:51:44.200Z,72.37
2022-09-12T17:54:16.009Z,71.98
2022-09-12T17:56:44.463Z,72.42
2022-09-12T17:59:15.744Z,72.44
2022-09-12T18:02:01.721Z,72.52
2022-09-12T18:04:29.051Z,72.75
2022-09-12T18:06:57.816Z,72.88
2022-09-12T18:09:28.346Z,73.12
2022-09-12T18:11:55.980Z,73.03
2022-09-12T18:14:24.001Z,73.60
2022-09-12T18:16:52.366Z,73.99
2022-09-12T18:19:19.656Z,74.07
2022-09-12T18:21:47.003Z,73.89
2022-09-12T18:24:14.907Z,74.31
2022-09-12T18:26:43.906Z,74.26
2022-09-12T18:29:12.562Z,74.70
2022-09-12T18:31:39.899Z,74.42
2022-09-12T18:34:12.750Z,74.78
2022-09-12T18:36:41.623Z,75.01
2022-09-12T18:39:08.744Z,75.66
2022-09-12T18:41:36.496Z,75.87
2022-09-12T18:44:05.226Z,76.07
2022-09-12T18:46:34.450Z,76.35
2022-09-12T18:49:02.243Z,76.26
2022-09-12T18:51:33.060Z,76.11
2022-09-12T18:54:03.294Z,76.30
2022-09-12T18:56:35.424Z,76.64
2022-09-12T18:59:03.778Z,76.45
2022-09-12T19:01:33.807Z,76.71
2022-09-12T19:04:04.875Z,76.93
2022-09-12T19:06:35.231Z,77.08
2022-09-12T19:09:07.250Z,77.33
2022-09-12T19:11:36.910Z,76.84
2022-09-12T19:14:04.243Z,76.92
2022-09-12T19:16:31.694Z,77.07
2022-09-12T19:19:00.066Z,77.49
2022-09-12T19:21:30.619Z,77.55
2022-09-12T19:24:00.826Z,77.47
2022-09-12T19:26:28.378Z,77.88
2022-09-12T19:28:55.662Z,78.30
2022-09-12T19:31:23.588Z,78.51
2022-09-12T19:33:52.396Z,78.58
2022-09-12T19:36:43.866Z,78.60
2022-09-12T19:39:09.032Z,78.31
2022-09-12T19:41:37.186Z,78.29
2022-09-12T19:44:05.195Z,78.63
2022-09-12T19:46:32.896Z,78.66
2022-09-12T19:49:00.357Z,78.93
2022-09-12T19:51:27.675Z,78.78
2022-09-12T19:53:54.898Z,78.83
2022-09-12T19:56:22.149Z,78.74
2022-09-12T19:58:55.749Z,79.13
2022-09-12T20:01:28.607Z,79.20
2022-09-12T20:03:59.444Z,79.02
2022-09-12T20:06:27.619Z,79.38
2022-09-12T20:08:55.855Z,79.54
2022-09-12T20:11:24.152Z,79.44
2022-09-12T20:13:52.196Z,79.46
2022-09-12T20:16:25.795Z,79.34
2022-09-12T20:19:01.613Z,79.63
2022-09-12T20:21:34.426Z,79.43
2022-09-12T20:24:13.143Z,79.27
2022-09-12T20:26:40.954Z,79.49
2022-09-12T20:29:09.511Z,79.13
2022-09-12T20:31:38.802Z,78.55
2022-09-12T20:34:07.168Z,79.19
2022-09-12T20:36:34.623Z,79.01
2022-09-12T20:39:02.713Z,79.76
2022-09-12T20:41:32.340Z,79.76
2022-09-12T20:43:59.681Z,79.35
2022-09-12T20:46:28.527Z,79.18
2022-09-12T20:48:56.432Z,79.05
2022-09-12T20:51:26.833Z,79.06
2022-09-12T20:53:58.945Z,79.00
2022-09-12T20:56:28.603Z,79.84
2022-09-12T20:58:56.221Z,79.68
2022-09-12T21:01:24.166Z,79.45
2022-09-12T21:03:52.144Z,79.32
2022-09-12T21:06:19.887Z,79.60
2022-09-12T21:08:48.445Z,79.66
2022-09-12T21:11:16.461Z,80.05
2022-09-12T21:13:43.753Z,80.34
2022-09-12T21:16:16.241Z,79.56
2022-09-12T21:18:43.717Z,79.27
2022-09-12T21:21:15.194Z,79.78
2022-09-12T21:23:42.926Z,80.04
2022-09-12T21:26:10.702Z,80.80
2022-09-12T21:28:37.859Z,80.41
2022-09-12T21:31:05.246Z,80.19
2022-09-12T21:33:32.620Z,80.55
2022-09-12T21:36:07.101Z,81.13
2022-09-12T21:38:34.971Z,80.64
2022-09-12T21:41:07.290Z,80.99
2022-09-12T21:43:34.674Z,80.83
2022-09-12T21:46:02.290Z,80.54
2022-09-12T21:48:30.011Z,80.89
2022-09-12T21:50:57.542Z,81.07
2022-09-12T21:53:25.016Z,80.60
2022-09-12T21:55:52.542Z,80.72
2022-09-12T21:58:19.943Z,81.02
2022-09-12T22:00:47.400Z,81.47
2022-09-12T22:03:15.639Z,81.08
2022-09-12T22:05:43.381Z,81.39
2022-09-12T22:08:11.048Z,81.00
2022-09-12T22:10:38.749Z,80.78
2022-09-12T22:13:05.967Z,81.01
2022-09-12T22:15:41.227Z,81.05
2022-09-12T22:18:08.631Z,80.98
2022-09-12T22:20:35.677Z,81.55
2022-09-12T22:23:24.781Z,80.82
2022-09-12T22:25:56.134Z,80.61
2022-09-12T22:28:23.409Z,80.55
2022-09-12T22:30:50.918Z,80.47
2022-09-12T22:33:18.157Z,80.27
2022-09-12T22:35:45.136Z,80.23
2022-09-12T22:38:12.326Z,80.37
2022-09-12T22:40:39.371Z,80.34
2022-09-12T22:43:06.382Z,80.60
2022-09-12T22:45:33.387Z,80.76
2022-09-12T22:48:00.988Z,81.14
2022-09-12T22:50:28.793Z,81.04
2022-09-12T22:52:55.986Z,80.77
2022-09-12T22:55:23.189Z,80.15
2022-09-12T22:57:50.246Z,79.93
2022-09-12T23:00:18.551Z,79.57
2022-09-12T23:02:46.421Z,79.77
2022-09-12T23:05:13.447Z,80.04
2022-09-12T23:07:40.482Z,79.84
2022-09-12T23:10:08.233Z,79.90
2022-09-12T23:12:35.310Z,79.44
2022-09-12T23:15:02.346Z,79.81
2022-09-12T23:17:29.465Z,78.52
2022-09-12T23:19:56.576Z,78.96
2022-09-12T23:22:23.587Z,78.45
2022-09-12T23:24:50.714Z,78.22
2022-09-12T23:27:17.819Z,78.02
2022-09-12T23:29:44.790Z,78.03
2022-09-12T23:32:12.026Z,77.76
2022-09-12T23:34:39.272Z,78.36
2022-09-12T23:37:07.086Z,78.16
2022-09-12T23:39:34.347Z,77.71
2022-09-12T23:42:01.603Z,77.19
2022-09-12T23:44:28.765Z,77.55
2022-09-12T23:46:55.826Z,77.69
2022-09-12T23:49:22.911Z,77.47
2022-09-12T23:51:50.055Z,77.64
2022-09-12T23:54:17.112Z,77.68
2022-09-12T23:56:44.187Z,77.51
2022-09-12T23:59:11.287Z,76.62
